Time;durP1;ratioP1;P1;durP2;ratioP2;P2;SDS_P1;SDS_P2;PMS_P1;PMS_P2;Temp;Humidity;BMP_temperature;BMP_pressure;BME280_temperature;BME280_humidity;BME280_pressure;Samples;Min_cycle;Max_cycle;Signal;HPM_P1;HPM_P2
2022/01/03 00:00:49;;;;;;;4.05;0.80;;;;;;;8.42;100.00;100193.09;4875195;29;20057;-89
2022/01/03 00:03:18;;;;;;;4.45;1.00;;;;;;;8.44;100.00;100182.50;4874163;29;20060;-90
2022/01/03 00:05:46;;;;;;;3.35;1.10;;;;;;;8.44;100.00;100188.63;4880176;29;20104;-89
2022/01/03 00:08:13;;;;;;;2.38;0.90;;;;;;;8.59;100.00;100196.81;4886258;29;20129;-89
2022/01/03 00:10:40;;;;;;;6.30;1.50;;;;;;;8.58;100.00;100188.03;4879830;29;20512;-89
2022/01/03 00:13:11;;;;;;;3.67;1.50;;;;;;;8.77;100.00;100220.66;4881309;29;20112;-89
2022/01/03 00:15:37;;;;;;;5.28;1.60;;;;;;;8.66;100.00;100185.91;4876744;29;20096;-89
2022/01/03 00:18:04;;;;;;;5.40;1.92;;;;;;;8.57;100.00;100175.75;4881680;29;20094;-89
2022/01/03 00:20:33;;;;;;;5.55;2.40;;;;;;;8.92;100.00;100228.84;4884908;29;20140;-89
2022/01/03 00:23:05;;;;;;;4.70;2.00;;;;;;;8.86;100.00;100197.41;4876093;29;20519;-89
2022/01/03 00:25:36;;;;;;;8.30;2.53;;;;;;;8.96;100.00;100217.25;4874626;29;20060;-89
2022/01/03 00:28:23;;;;;;;3.95;2.15;;;;;;;9.04;100.00;100220.41;4880843;29;20063;-89
2022/01/03 00:30:55;;;;;;;5.55;2.55;;;;;;;9.08;100.00;100232.56;4877523;29;20053;-89
2022/01/03 00:33:23;;;;;;;6.30;3.20;;;;;;;8.99;100.00;100209.16;4881712;29;20053;-88
2022/01/03 00:35:55;;;;;;;8.15;2.90;;;;;;;9.08;100.00;100217.56;4878151;29;20087;-88
2022/01/03 00:38:22;;;;;;;9.20;3.25;;;;;;;9.17;100.00;100228.63;4883002;29;20041;-88
2022/01/03 00:40:49;;;;;;;10.48;3.38;;;;;;;9.11;100.00;100213.94;4881764;29;20096;-89
2022/01/03 00:43:17;;;;;;;10.70;3.10;;;;;;;9.27;100.00;100243.19;4879286;29;20041;-88
2022/01/03 00:45:43;;;;;;;9.57;3.50;;;;;;;9.12;100.00;100199.81;4879704;29;20052;-89
2022/01/03 00:48:12;;;;;;;8.85;3.13;;;;;;;9.07;100.00;100183.28;4879695;29;20060;-91
2022/01/03 00:50:39;;;;;;;10.77;2.90;;;;;;;9.16;100.00;100206.66;4878452;29;20084;-88
2022/01/03 00:53:06;;;;;;;6.95;3.03;;;;;;;9.18;100.00;100220.66;4882712;29;20067;-88
2022/01/03 00:55:33;;;;;;;9.20;2.40;;;;;;;9.20;100.00;100218.81;4880008;29;20057;-88
2022/01/03 00:58:07;;;;;;;7.43;2.80;;;;;;;9.27;100.00;100236.13;4885166;29;20494;-87
2022/01/03 01:00:37;;;;;;;9.40;3.10;;;;;;;9.30;100.00;100228.03;4877978;29;20124;-87
2022/01/03 01:03:17;;;;;;;;;;;;;;;9.34;100.00;100231.41;4878779;29;20057;-87
2022/01/03 01:05:48;;;;;;;14.63;3.63;;;;;;;9.33;100.00;100233.19;4876827;29;20018;-89
2022/01/03 01:08:19;;;;;;;12.13;4.00;;;;;;;9.40;100.00;100237.28;4866309;29;20048;-87
2022/01/03 01:10:47;;;;;;;8.32;3.35;;;;;;;9.29;100.00;100222.81;4886575;29;20425;-87
2022/01/03 01:13:14;;;;;;;12.43;3.38;;;;;;;9.36;100.00;100242.75;4877673;29;20057;-88
2022/01/03 01:15:42;;;;;;;12.45;3.38;;;;;;;9.34;100.00;100231.41;4879777;29;20437;-87
2022/01/03 01:18:09;;;;;;;10.55;3.13;;;;;;;9.40;100.00;100244.34;4884026;29;20072;-87
2022/01/03 01:20:39;;;;;;;7.50;3.40;;;;;;;9.19;100.00;100210.94;4878675;29;20056;-88
2022/01/03 01:23:09;;;;;;;7.13;3.15;;;;;;;9.20;100.00;100210.03;4879954;29;20056;-87
2022/01/03 01:28:08;;;;;;;7.97;2.67;;;;;;;9.29;100.00;100242.16;4883117;29;20085;-88
2022/01/03 01:30:36;;;;;;;8.73;1.98;;;;;;;9.34;100.00;100240.19;4883219;29;20049;-88
2022/01/03 01:33:13;;;;;;;5.38;1.63;;;;;;;9.16;100.00;100238.34;4879632;29;20094;-88
2022/01/03 01:35:46;;;;;;;5.53;1.65;;;;;;;9.35;100.00;100260.41;4871128;29;20129;-87
2022/01/03 01:38:18;;;;;;;7.50;1.40;;;;;;;9.03;100.00;100200.19;4878332;29;20049;-87
2022/01/03 01:40:47;;;;;;;7.07;1.70;;;;;;;9.30;100.00;100262.38;4865886;29;20543;-87
2022/01/03 01:43:17;;;;;;;8.05;1.48;;;;;;;9.25;100.00;100251.19;4881372;29;20147;-87
2022/01/03 01:45:48;;;;;;;4.32;1.17;;;;;;;9.28;100.00;100268.69;4873906;29;20087;-87
2022/01/03 01:48:16;;;;;;;7.80;1.48;;;;;;;9.24;100.00;100283.81;4883291;29;20049;-87
2022/01/03 01:50:49;;;;;;;4.53;1.30;;;;;;;8.99;100.00;100257.56;4879354;29;20094;-87
2022/01/03 01:53:21;;;;;;;10.43;1.45;;;;;;;9.03;100.00;100256.53;4872857;29;20117;-87
2022/01/03 01:55:51;;;;;;;9.02;2.03;;;;;;;8.87;100.00;100234.31;4871278;29;20562;-87
2022/01/03 01:58:21;;;;;;;6.47;1.60;;;;;;;9.20;100.00;100291.91;4874630;29;20102;-87
2022/01/03 02:00:55;;;;;;;6.15;1.35;;;;;;;9.10;100.00;100279.13;4864339;29;20092;-87
2022/01/03 02:03:22;;;;;;;4.07;1.30;;;;;;;9.05;100.00;100278.44;4867046;29;20056;-87
2022/01/03 02:06:12;;;;;;;7.22;1.30;;;;;;;8.88;100.00;100258.94;4873665;29;20139;-87
2022/01/03 02:08:44;;;;;;;9.00;1.73;;;;;;;8.89;100.00;100281.78;4873366;29;20056;-88
2022/01/03 02:11:42;;;;;;;7.72;1.40;;;;;;;8.75;100.00;100275.31;4877888;29;20087;-88
2022/01/03 02:14:11;;;;;;;7.30;1.48;;;;;;;8.78;100.00;100279.63;4869708;29;20661;-88
2022/01/03 02:16:38;;;;;;;5.88;1.38;;;;;;;8.62;100.00;100247.72;4876783;29;20135;-87
2022/01/03 02:19:04;;;;;;;10.68;2.10;;;;;;;8.57;100.00;100262.88;4877904;29;20049;-87
2022/01/03 02:21:32;;;;;;;8.07;1.13;;;;;;;8.62;100.00;100276.75;4878593;29;20049;-87
2022/01/03 02:23:58;;;;;;;5.82;1.38;;;;;;;8.49;100.00;100254.41;4878608;29;20140;-88
2022/01/03 02:26:28;;;;;;;9.43;1.50;;;;;;;8.59;100.00;100278.63;4875143;29;20080;-87
2022/01/03 02:28:54;;;;;;;5.60;1.23;;;;;;;8.57;100.00;100283.97;4874433;29;20135;-86
2022/01/03 02:31:22;;;;;;;5.32;1.48;;;;;;;8.51;100.00;100275.44;4880063;29;20052;-88
2022/01/03 02:33:49;;;;;;;5.57;1.30;;;;;;;8.46;100.00;100278.28;4859404;29;20520;-88
2022/01/03 02:36:19;;;;;;;10.93;1.52;;;;;;;8.43;100.00;100286.31;4873587;29;20063;-88
2022/01/03 02:38:46;;;;;;;6.97;1.42;;;;;;;8.35;100.00;100280.47;4881050;29;20720;-87
2022/01/03 02:41:13;;;;;;;7.95;1.42;;;;;;;8.27;100.00;100258.78;4879567;29;20084;-88
2022/01/03 02:43:40;;;;;;;6.80;1.40;;;;;;;8.27;100.00;100277.25;4860443;29;20140;-88
2022/01/03 02:46:06;;;;;;;8.73;1.58;;;;;;;8.18;100.00;100253.88;4875790;29;20112;-88
2022/01/03 02:48:33;;;;;;;11.95;1.45;;;;;;;8.16;100.00;100250.44;4886025;29;20498;-88
2022/01/03 02:51:00;;;;;;;6.15;1.35;;;;;;;8.15;100.00;100248.72;4893844;29;20053;-87
2022/01/03 02:53:27;;;;;;;9.13;1.15;;;;;;;8.19;100.00;100258.22;4891392;29;20052;-87
2022/01/03 02:55:54;;;;;;;6.18;1.30;;;;;;;8.05;100.00;100245.56;4884800;29;20060;-87
2022/01/03 02:58:20;;;;;;;11.35;1.63;;;;;;;8.21;100.00;100274.84;4894710;29;20053;-88
2022/01/03 03:00:49;;;;;;;7.53;1.63;;;;;;;8.08;100.00;100266.56;4883352;29;20141;-88
2022/01/03 03:03:21;;;;;;;13.48;1.60;;;;;;;8.15;100.00;100280.38;4883764;29;20153;-87
2022/01/03 03:05:50;;;;;;;11.30;1.35;;;;;;;8.07;100.00;100275.38;4863257;29;20053;-87
2022/01/03 03:08:20;;;;;;;11.77;1.65;;;;;;;7.90;100.00;100268.13;4880305;29;20140;-87
2022/01/03 03:10:47;;;;;;;11.65;1.58;;;;;;;8.00;100.00;100264.22;4884235;29;20060;-88
2022/01/03 03:13:14;;;;;;;10.32;2.15;;;;;;;8.13;100.00;100280.44;4879258;29;20155;-88
2022/01/03 03:15:40;;;;;;;10.07;1.33;;;;;;;8.13;100.00;100271.66;4875552;29;20144;-88
2022/01/03 03:18:09;;;;;;;11.88;1.38;;;;;;;8.18;100.00;100282.91;4878234;29;20065;-88
2022/01/03 03:20:37;;;;;;;5.57;1.25;;;;;;;8.04;100.00;100259.69;4862501;29;20097;-88
2022/01/03 03:23:04;;;;;;;9.15;1.20;;;;;;;8.21;100.00;100304.72;4892585;29;20108;-88
2022/01/03 03:25:33;;;;;;;9.38;1.88;;;;;;;8.18;100.00;100293.47;4885252;29;20529;-88
2022/01/03 03:28:03;;;;;;;8.35;1.52;;;;;;;7.87;100.00;100249.78;4884842;29;20072;-88
2022/01/03 03:30:36;;;;;;;8.57;1.38;;;;;;;8.14;100.00;100289.22;4885336;29;20120;-88
2022/01/03 03:33:22;;;;;;;7.38;1.35;;;;;;;8.02;100.00;100283.50;4881395;29;20481;-88
2022/01/03 03:35:51;;;;;;;7.57;1.45;;;;;;;7.90;100.00;100262.84;4859318;29;20140;-88
2022/01/03 03:38:25;;;;;;;9.27;1.40;;;;;;;8.01;100.00;100284.41;4886605;29;20144;-87
2022/01/03 03:40:53;;;;;;;11.07;1.30;;;;;;;8.15;100.00;100309.41;4881602;29;20065;-88
2022/01/03 03:43:22;;;;;;;8.10;1.10;;;;;;;7.93;100.00;100260.09;4878844;29;20076;-88
2022/01/03 03:45:49;;;;;;;6.68;1.50;;;;;;;8.05;100.00;100275.44;4890560;29;20040;-89
2022/01/03 03:48:18;;;;;;;14.15;1.92;;;;;;;8.24;100.00;100306.38;4899000;29;20037;-88
2022/01/03 03:50:46;;;;;;;7.82;1.40;;;;;;;8.15;100.00;100285.66;4877187;29;20045;-88
2022/01/03 03:53:13;;;;;;;14.15;1.83;;;;;;;8.25;100.00;100305.47;4881445;29;20055;-88
2022/01/03 03:55:44;;;;;;;7.70;1.65;;;;;;;8.37;100.00;100316.44;4877761;29;20063;-89
2022/01/03 03:58:13;;;;;;;8.63;1.58;;;;;;;8.14;100.00;100249.66;4881091;29;20091;-88
2022/01/03 04:00:39;;;;;;;7.00;1.60;;;;;;;8.36;100.00;100287.47;4880215;29;20041;-89
2022/01/03 04:03:26;;;;;;;10.55;2.33;;;;;;;8.48;100.00;100302.84;4871097;29;20049;-88
2022/01/03 04:05:54;;;;;;;11.43;1.95;;;;;;;8.44;100.00;100295.94;4873540;29;20061;-88
2022/01/03 04:08:20;;;;;;;7.05;1.73;;;;;;;8.38;100.00;100283.84;4878240;29;20155;-88
2022/01/03 04:10:47;;;;;;;8.35;1.50;;;;;;;8.21;100.00;100253.75;4875541;29;20049;-88
2022/01/03 04:13:14;;;;;;;10.40;2.20;;;;;;;8.37;100.00;100278.63;4879762;29;20085;-88
2022/01/03 04:15:41;;;;;;;10.93;1.92;;;;;;;8.55;100.00;100288.47;4859612;29;20059;-88
2022/01/03 04:18:08;;;;;;;5.72;1.30;;;;;;;8.53;100.00;100292.06;4868964;29;20053;-88
2022/01/03 04:20:34;;;;;;;10.57;1.27;;;;;;;8.41;100.00;100274.97;4881169;29;20496;-89
2022/01/03 04:23:01;;;;;;;11.15;1.85;;;;;;;8.45;100.00;100302.94;4890489;29;20049;-88
2022/01/03 04:25:28;;;;;;;6.22;1.55;;;;;;;8.36;100.00;100269.00;4882471;29;20074;-89
2022/01/03 04:27:55;;;;;;;9.20;1.27;;;;;;;8.25;100.00;100258.00;4889181;29;20098;-89
2022/01/03 04:30:22;;;;;;;7.22;1.20;;;;;;;8.19;100.00;100274.03;4882808;29;20053;-89
2022/01/03 04:32:48;;;;;;;6.22;1.35;;;;;;;8.19;100.00;100279.31;4875988;29;20052;-88
2022/01/03 04:35:15;;;;;;;4.75;1.30;;;;;;;8.21;100.00;100282.75;4879646;29;20064;-89
2022/01/03 04:37:42;;;;;;;4.95;0.98;;;;;;;8.19;100.00;100284.59;4878319;29;20525;-88
2022/01/03 04:40:09;;;;;;;3.30;0.90;;;;;;;8.23;100.00;100299.38;4895087;29;20045;-88
2022/01/03 04:42:36;;;;;;;7.20;1.27;;;;;;;8.12;100.00;100288.41;4903372;29;20045;-88
2022/01/03 04:45:03;;;;;;;8.48;0.90;;;;;;;8.26;100.00;100305.41;4900469;29;20101;-89
2022/01/03 04:47:30;;;;;;;7.22;1.23;;;;;;;8.12;100.00;100280.50;4897246;29;20049;-88
2022/01/03 04:49:57;;;;;;;5.10;0.90;;;;;;;8.02;100.00;100262.41;4902863;29;20053;-88
2022/01/03 04:52:27;;;;;;;4.55;0.60;;;;;;;8.31;100.00;100306.09;4904524;29;20056;-88
2022/01/03 04:54:53;;;;;;;3.80;0.90;;;;;;;8.24;100.00;100306.38;4895783;29;20056;-87
2022/01/03 04:57:20;;;;;;;6.72;1.08;;;;;;;8.22;100.00;100311.72;4891109;29;20078;-88
2022/01/03 04:59:47;;;;;;;5.07;0.60;;;;;;;8.12;100.00;100285.78;4902180;29;20024;-87
2022/01/03 05:02:14;;;;;;;4.25;0.95;;;;;;;8.07;100.00;100267.47;4898856;29;20137;-89
2022/01/03 05:04:40;;;;;;;5.78;0.60;;;;;;;8.14;100.00;100289.22;4898805;29;20041;-88
2022/01/03 05:07:07;;;;;;;3.33;1.08;;;;;;;8.23;100.00;100296.75;4886040;29;20052;-87
2022/01/03 05:09:34;;;;;;;3.88;0.70;;;;;;;8.18;100.00;100277.63;4883673;29;20053;-88
2022/01/03 05:12:02;;;;;;;4.30;1.10;;;;;;;8.23;100.00;100288.84;4894823;29;20076;-89
2022/01/03 05:14:29;;;;;;;4.07;0.60;;;;;;;8.15;100.00;100283.03;4892837;29;20139;-88
2022/01/03 05:16:57;;;;;;;2.78;0.60;;;;;;;8.17;99.86;100284.69;4872598;29;20060;-88
2022/01/03 05:19:25;;;;;;;3.67;0.73;;;;;;;7.93;100.00;100260.09;4881645;29;20036;-88
2022/01/03 05:21:54;;;;;;;5.05;0.40;;;;;;;8.20;100.00;100307.41;4881357;29;20048;-88
2022/01/03 05:24:21;;;;;;;3.00;0.75;;;;;;;7.93;100.00;100252.19;4889492;29;20053;-88
2022/01/03 05:26:48;;;;;;;7.38;0.60;;;;;;;7.97;100.00;100268.75;4883538;29;20080;-88
2022/01/03 05:29:15;;;;;;;4.65;0.73;;;;;;;8.15;100.00;100288.28;4890076;29;20101;-88
2022/01/03 05:31:47;;;;;;;6.40;0.82;;;;;;;7.91;100.00;100250.53;4877935;29;20128;-88
2022/01/03 05:34:14;;;;;;;6.43;0.95;;;;;;;7.93;100.00;100262.72;4880221;29;20140;-88
2022/01/03 05:36:40;;;;;;;7.25;1.00;;;;;;;8.16;100.00;100290.88;4880739;29;20080;-88
2022/01/03 05:39:07;;;;;;;7.72;1.05;;;;;;;7.98;100.00;100267.84;4883896;29;20114;-88
2022/01/03 05:41:34;;;;;;;3.55;0.80;;;;;;;8.29;98.30;100293.88;4862028;29;20071;-87
2022/01/03 05:44:01;;;;;;;5.47;1.13;;;;;;;8.26;97.17;100286.94;4877391;29;20084;-89
2022/01/03 05:46:31;;;;;;;6.47;1.00;;;;;;;8.38;95.52;100286.50;4872794;29;20057;-89
2022/01/03 05:48:58;;;;;;;3.65;1.00;;;;;;;8.36;96.15;100288.31;4876302;29;20515;-89
2022/01/03 05:51:25;;;;;;;5.43;1.10;;;;;;;8.20;97.86;100259.94;4874275;29;20087;-88
2022/01/03 05:53:53;;;;;;;9.40;1.42;;;;;;;8.41;96.17;100286.38;4871872;29;21713;-88
2022/01/03 05:56:20;;;;;;;6.03;1.00;;;;;;;8.42;95.43;100281.97;4873179;29;20064;-88
2022/01/03 05:58:47;;;;;;;6.70;1.10;;;;;;;8.48;98.26;100307.25;4872688;29;20161;-89
2022/01/03 06:01:14;;;;;;;5.47;1.35;;;;;;;8.25;97.34;100258.84;4870993;29;20133;-88
2022/01/03 06:03:41;;;;;;;4.32;0.80;;;;;;;8.18;97.71;100261.81;4873890;29;20077;-88
2022/01/03 06:08:37;;;;;;;13.07;1.40;;;;;;;8.19;99.55;100281.94;4873069;29;20053;-89
2022/01/03 06:11:05;;;;;;;8.02;1.15;;;;;;;8.32;100.00;100301.72;4873654;29;20053;-88
2022/01/03 06:13:32;;;;;;;4.65;1.08;;;;;;;8.14;99.52;100276.03;4855435;29;20052;-88
2022/01/03 06:15:58;;;;;;;5.15;0.90;;;;;;;8.19;100.00;100297.78;4870068;29;20096;-88
2022/01/03 06:18:25;;;;;;;3.45;0.70;;;;;;;7.94;100.00;100253.03;4869775;29;20101;-88
2022/01/03 06:20:54;;;;;;;2.70;1.00;;;;;;;8.14;100.00;100302.41;4873155;29;20045;-88
2022/01/03 06:23:21;;;;;;;5.78;1.20;;;;;;;8.01;100.00;100280.91;4868268;29;20143;-88
2022/01/03 06:25:48;;;;;;;9.98;1.08;;;;;;;8.19;100.00;100308.34;4873286;29;20081;-88
2022/01/03 06:28:15;;;;;;;5.00;0.90;;;;;;;8.02;100.00;100274.72;4874528;29;20053;-88
2022/01/03 06:30:43;;;;;;;3.63;0.77;;;;;;;8.06;100.00;100286.84;4860385;29;20053;-88
2022/01/03 06:33:11;;;;;;;6.70;0.90;;;;;;;7.74;100.00;100245.88;4874123;29;20085;-88
2022/01/03 06:35:38;;;;;;;6.47;0.80;;;;;;;7.93;100.00;100297.00;4874395;29;20498;-89
2022/01/03 06:38:05;;;;;;;5.93;1.38;;;;;;;7.93;100.00;100306.69;4870474;29;20053;-88
2022/01/03 06:40:32;;;;;;;3.63;0.70;;;;;;;7.89;100.00;100308.59;4873749;29;20112;-88
2022/01/03 06:42:59;;;;;;;7.93;0.98;;;;;;;7.72;100.00;100289.88;4872324;29;20092;-88
2022/01/03 06:45:26;;;;;;;7.13;1.08;;;;;;;7.58;100.00;100271.94;4874719;29;20124;-88
2022/01/03 06:47:56;;;;;;;5.13;0.90;;;;;;;7.53;100.00;100247.56;4872082;29;20049;-88
2022/01/03 06:50:23;;;;;;;7.60;1.58;;;;;;;7.75;100.00;100282.72;4873993;29;20049;-87
2022/01/03 06:52:50;;;;;;;3.90;0.90;;;;;;;7.52;100.00;100261.66;4873220;29;20104;-87
2022/01/03 06:55:17;;;;;;;7.68;1.30;;;;;;;7.56;100.00;100289.59;4874081;29;20056;-88
2022/01/03 06:57:44;;;;;;;6.72;1.42;;;;;;;7.63;100.00;100311.31;4872136;29;20136;-88
2022/01/03 07:00:11;;;;;;;6.82;1.27;;;;;;;7.44;100.00;100290.03;4874236;29;20140;-88
2022/01/03 07:02:42;;;;;;;7.45;1.60;;;;;;;7.67;100.00;100315.56;4875509;29;20963;-88
2022/01/03 07:05:11;;;;;;;5.63;1.27;;;;;;;7.52;100.00;100298.53;4872945;29;20462;-88
2022/01/03 07:07:38;;;;;;;10.75;1.77;;;;;;;7.59;100.00;100309.72;4874189;29;20049;-88
2022/01/03 07:10:09;;;;;;;7.18;1.40;;;;;;;7.57;100.00;100303.63;4872723;29;20053;-88
2022/01/03 07:12:36;;;;;;;8.02;1.35;;;;;;;7.64;100.00;100291.97;4873874;29;20109;-88
2022/01/03 07:20:34;;;;;;;8.50;1.50;;;;;;;7.59;100.00;100304.44;4877402;29;20144;-90
2022/01/03 07:23:01;;;;;;;6.90;1.27;;;;;;;7.51;100.00;100285.44;4875370;29;20481;-88
2022/01/03 07:25:28;;;;;;;8.80;1.70;;;;;;;7.45;100.00;100285.63;4876772;29;20148;-88
2022/01/03 07:27:55;;;;;;;10.05;2.28;;;;;;;7.67;100.00;100321.72;4875407;29;20053;-88
2022/01/03 07:30:28;;;;;;;4.82;1.40;;;;;;;7.37;100.00;100251.69;4879422;29;20075;-92
2022/01/03 07:32:54;;;;;;;9.82;1.33;;;;;;;7.72;100.00;100317.09;4876026;29;20064;-87
2022/01/03 07:35:22;;;;;;;7.72;1.15;;;;;;;7.67;100.00;100305.91;4879439;29;20160;-87
2022/01/03 07:37:50;;;;;;;6.45;1.35;;;;;;;7.81;100.00;100323.84;4876921;29;20053;-87
2022/01/03 07:40:16;;;;;;;6.28;1.20;;;;;;;7.79;100.00;100312.47;4874752;29;20045;-87
2022/01/03 07:42:43;;;;;;;9.65;1.55;;;;;;;7.63;100.00;100290.25;4863144;29;20056;-87
2022/01/03 07:45:11;;;;;;;5.72;1.13;;;;;;;7.85;100.00;100309.63;4877907;29;20509;-86
2022/01/03 07:47:38;;;;;;;5.80;1.45;;;;;;;7.77;100.00;100302.91;4872323;29;20148;-86
2022/01/03 07:50:07;;;;;;;4.82;1.20;;;;;;;7.87;100.00;100314.84;4876476;29;20053;-86
2022/01/03 07:52:34;;;;;;;9.07;1.20;;;;;;;7.91;100.00;100319.06;4878226;29;20233;-87
2022/01/03 07:55:06;;;;;;;5.40;1.20;;;;;;;7.80;100.00;100285.22;4868204;29;20124;-86
2022/01/03 07:57:33;;;;;;;7.35;1.10;;;;;;;7.74;100.00;100293.34;4876719;29;20053;-88
2022/01/03 08:00:00;;;;;;;8.38;1.45;;;;;;;7.77;100.00;100302.91;4881278;29;20057;-87
2022/01/03 08:02:29;;;;;;;5.35;1.00;;;;;;;7.51;100.00;100261.72;4873784;29;20052;-87
2022/01/03 08:04:58;;;;;;;8.38;1.23;;;;;;;7.83;100.00;100319.38;4875023;29;20049;-87
2022/01/03 08:07:25;;;;;;;6.93;1.52;;;;;;;7.74;100.00;100301.25;4874877;29;20108;-86
2022/01/03 08:09:52;;;;;;;7.63;1.70;;;;;;;7.82;100.00;100309.75;4878871;29;20485;-87
2022/01/03 08:12:18;;;;;;;12.63;1.85;;;;;;;7.71;100.00;100272.38;4884993;29;20076;-87
2022/01/03 08:14:48;;;;;;;5.97;1.40;;;;;;;7.90;100.00;100305.03;4874067;29;20061;-88
2022/01/03 08:17:18;;;;;;;6.65;1.58;;;;;;;7.51;100.00;100251.16;4872271;29;20060;-87
2022/01/03 08:19:45;;;;;;;6.75;1.67;;;;;;;7.80;100.00;100303.66;4873350;29;20052;-87
2022/01/03 08:22:12;;;;;;;8.50;1.60;;;;;;;7.67;100.00;100276.91;4869896;29;20517;-86
2022/01/03 08:24:39;;;;;;;11.27;2.13;;;;;;;7.85;100.00;100309.63;4866395;29;20056;-87
2022/01/03 08:27:07;;;;;;;9.15;2.30;;;;;;;7.67;100.00;100281.31;4865397;29;20048;-86
2022/01/03 08:29:35;;;;;;;11.18;2.97;;;;;;;7.80;100.00;100284.34;4876026;29;20072;-87
2022/01/03 08:32:01;;;;;;;6.53;1.85;;;;;;;7.94;100.00;100309.28;4868440;29;20510;-87
2022/01/03 08:34:31;;;;;;;10.73;2.28;;;;;;;7.88;100.00;100288.41;4877288;29;20140;-87
2022/01/03 08:37:00;;;;;;;10.47;2.10;;;;;;;7.87;100.00;100265.59;4882644;29;20064;-87
2022/01/03 08:39:27;;;;;;;7.93;1.75;;;;;;;8.00;100.00;100300.28;4881657;29;20120;-87
2022/01/03 08:41:54;;;;;;;7.63;2.13;;;;;;;7.65;100.00;100259.44;4882274;29;20108;-87
2022/01/03 08:44:21;;;;;;;11.85;2.15;;;;;;;7.87;100.00;100280.59;4876398;29;20478;-87
2022/01/03 08:46:49;;;;;;;12.88;2.30;;;;;;;7.92;100.00;100290.00;4878201;29;20117;-87
2022/01/03 08:49:16;;;;;;;7.20;1.58;;;;;;;7.94;100.00;100275.00;4875655;29;20053;-87
2022/01/03 08:51:48;;;;;;;11.00;2.28;;;;;;;7.84;100.00;100263.09;4885276;29;20041;-87
2022/01/03 08:54:19;;;;;;;11.13;1.98;;;;;;;8.15;100.00;100304.13;4891658;29;20112;-86
2022/01/03 08:56:52;;;;;;;10.43;2.25;;;;;;;7.99;100.00;100254.59;4899873;29;20112;-85
2022/01/03 08:59:25;;;;;;;9.60;1.70;;;;;;;7.92;100.00;100237.28;4895564;29;20068;-86
2022/01/03 09:01:56;;;;;;;16.60;2.35;;;;;;;8.29;100.00;100268.38;4882991;29;20136;-86
2022/01/03 09:04:26;;;;;;;9.68;2.53;;;;;;;8.18;100.00;100253.88;4880947;29;20067;-89
2022/01/03 09:06:59;;;;;;;15.02;2.85;;;;;;;8.13;100.00;100246.16;4880054;29;20056;-86
2022/01/03 09:09:33;;;;;;;16.70;2.53;;;;;;;8.27;100.00;100253.50;4885440;29;20056;-86
2022/01/03 09:12:28;;;;;;;14.25;2.63;;;;;;;8.06;100.00;100211.22;4858491;29;20065;-85
2022/01/03 09:15:02;;;;;;;12.18;2.80;;;;;;;8.13;100.00;100211.00;4884667;29;20490;-87
2022/01/03 09:17:37;;;;;;;21.35;3.08;;;;;;;8.60;99.86;100275.94;4872817;29;20057;-86
2022/01/03 09:20:05;;;;;;;15.13;2.70;;;;;;;8.42;99.47;100247.66;4876490;29;20741;-87
2022/01/03 09:22:40;;;;;;;13.82;2.88;;;;;;;8.67;98.67;100280.03;4873664;29;20117;-86
2022/01/03 09:30:36;;;;;;;12.32;2.38;;;;;;;8.76;97.43;100289.38;4877909;29;20045;-87
2022/01/03 09:33:10;;;;;;;14.07;2.40;;;;;;;8.69;97.39;100264.13;4874550;29;20064;-87
2022/01/03 09:35:37;;;;;;;13.32;2.42;;;;;;;8.63;96.05;100233.59;4874255;29;20121;-87
2022/01/03 09:38:04;;;;;;;13.48;2.38;;;;;;;8.85;96.16;100267.00;4867195;29;20063;-86
2022/01/03 09:40:33;;;;;;;14.45;3.05;;;;;;;8.96;95.03;100276.22;4872410;29;20100;-86
2022/01/03 09:43:01;;;;;;;15.60;2.65;;;;;;;8.99;94.28;100261.97;4870297;29;20160;-86
2022/01/03 09:45:39;;;;;;;9.23;2.25;;;;;;;9.21;94.46;100288.34;4874187;24;20110;-86
2022/01/03 09:48:21;;;;;;;13.82;2.25;;;;;;;9.27;94.66;100285.47;4885401;29;20062;-88
2022/01/03 09:51:12;;;;;;;10.02;1.80;;;;;;;9.19;92.95;100264.63;4894017;29;20056;-89
2022/01/03 09:53:40;;;;;;;12.35;2.17;;;;;;;9.52;92.04;100285.22;4896347;29;20076;-87
2022/01/03 09:56:35;;;;;;;14.02;1.80;;;;;;;9.50;90.68;100266.78;4888938;29;20457;-87
2022/01/03 09:59:20;;;;;;;12.80;2.50;;;;;;;9.75;89.81;100298.31;4875426;29;20056;-89
2022/01/03 10:01:53;;;;;;;12.20;1.73;;;;;;;9.73;89.50;100287.78;4884607;29;20144;-87
2022/01/03 10:04:22;;;;;;;12.70;2.03;;;;;;;9.54;89.31;100259.59;4884101;29;20077;-88
2022/01/03 10:07:00;;;;;;;10.70;1.90;;;;;;;9.45;89.49;100243.19;4875693;29;20390;-89
2022/01/03 10:09:31;;;;;;;11.23;1.88;;;;;;;9.81;88.62;100287.44;4861792;29;20053;-88
2022/01/03 10:12:19;;;;;;;11.18;2.22;;;;;;;9.66;89.63;100259.03;4879857;29;20045;-89
2022/01/03 10:18:19;;;;;;;12.82;2.28;;;;;;;9.63;89.23;100248.59;5102429;24;20115;-87
2022/01/03 10:20:51;;;;;;;11.77;1.88;;;;;;;9.55;90.68;100234.88;4878661;29;20045;-88
2022/01/03 10:23:57;;;;;;;11.93;2.25;;;;;;;9.50;90.51;100219.22;4876836;29;20049;-89
2022/01/03 10:27:06;;;;;;;14.45;2.20;;;;;;;9.67;90.72;100247.53;4875575;29;20132;-88
2022/01/03 10:30:59;;;;;;;16.90;2.53;;;;;;;9.95;90.89;100279.72;4808938;29;20055;-89
2022/01/03 10:42:18;;;;;;;21.65;2.13;;;;;;;9.55;92.00;100209.31;4772249;29;20045;-90
2022/01/03 10:45:01;;;;;;;16.90;2.22;;;;;;;9.83;91.67;100248.53;4786558;29;20063;-88
2022/01/03 10:51:09;;;;;;;12.50;2.20;;;;;;;9.55;92.75;100217.22;4882482;29;20066;-91
2022/01/03 10:54:26;;;;;;;12.68;2.90;;;;;;;9.77;93.38;100257.59;4841424;29;20044;-89
2022/01/03 11:00:40;;;;;;;14.15;2.63;;;;;;;9.55;93.28;100226.94;4899364;29;20119;-90
2022/01/03 11:03:26;;;;;;;13.60;2.75;;;;;;;9.79;92.84;100254.91;4894393;29;20080;-89
2022/01/03 11:06:02;;;;;;;14.63;2.10;;;;;;;9.67;92.84;100236.97;4885449;29;20516;-89
2022/01/03 11:11:43;;;;;;;11.52;2.28;;;;;;;9.65;94.33;100254.66;4901615;29;20512;-89
2022/01/03 11:14:38;;;;;;;9.30;1.95;;;;;;;9.45;95.03;100219.41;4909847;29;20072;-91
2022/01/03 11:17:42;;;;;;;11.93;2.10;;;;;;;9.46;96.44;100238.78;4902295;29;20710;-89
2022/01/03 11:20:28;;;;;;;15.35;2.42;;;;;;;9.42;98.75;100247.78;4822017;29;20572;-89
2022/01/03 11:23:00;;;;;;;12.57;2.15;;;;;;;9.25;99.28;100218.59;4909423;29;20079;-86
2022/01/03 11:25:32;;;;;;;12.23;2.60;;;;;;;9.11;100.00;100220.09;4915115;29;20070;-87
2022/01/03 11:28:00;;;;;;;13.10;2.78;;;;;;;8.99;100.00;100214.44;4898568;29;20048;-86
2022/01/03 11:30:27;;;;;;;13.43;2.80;;;;;;;8.98;100.00;100226.78;4898186;29;20058;-87
2022/01/03 11:33:11;;;;;;;12.18;2.70;;;;;;;8.72;100.00;100175.13;4897783;29;20072;-89
2022/01/03 11:35:51;;;;;;;14.60;3.05;;;;;;;8.78;100.00;100172.22;4902907;29;20063;-87
2022/01/03 11:38:21;;;;;;;16.15;3.20;;;;;;;9.09;100.00;100223.72;4895356;29;20053;-86
2022/01/03 11:40:59;;;;;;;19.65;2.97;;;;;;;8.85;100.00;100164.03;4890924;29;20048;-87
2022/01/03 11:43:28;;;;;;;17.85;3.15;;;;;;;9.10;100.00;100194.59;4876764;29;20136;-86
2022/01/03 11:45:58;;;;;;;15.18;2.72;;;;;;;9.09;100.00;100173.53;4888229;29;20081;-87
2022/01/03 11:48:26;;;;;;;14.48;3.15;;;;;;;9.16;100.00;100172.31;4869560;29;20057;-90
2022/01/03 11:50:58;;;;;;;10.27;2.50;;;;;;;8.98;100.00;100137.00;4891704;29;20509;-87
2022/01/03 11:53:25;;;;;;;13.38;3.03;;;;;;;9.31;100.00;100174.25;4891067;29;20476;-87
2022/01/03 11:55:54;;;;;;;20.67;3.70;;;;;;;9.37;100.00;100178.41;4889777;29;20132;-88
2022/01/03 11:58:52;;;;;;;22.60;3.30;;;;;;;9.39;100.00;100177.44;4886751;29;20057;-88
2022/01/03 12:04:14;;;;;;;19.25;3.25;;;;;;;9.33;100.00;100145.97;4891900;29;20064;-88
2022/01/03 12:06:44;;;;;;;12.15;3.30;;;;;;;9.56;100.00;100166.09;4888547;29;20748;-87
2022/01/03 12:09:16;;;;;;;23.42;3.83;;;;;;;9.58;100.00;100158.09;4888541;29;20095;-88
2022/01/03 12:11:42;;;;;;;12.93;3.33;;;;;;;9.66;100.00;100161.22;4882977;29;20057;-88
2022/01/03 12:14:12;;;;;;;17.70;3.78;;;;;;;9.45;100.00;100104.91;4868486;29;20172;-87
2022/01/03 12:16:43;;;;;;;18.10;3.53;;;;;;;9.42;100.00;100098.00;4881535;29;20139;-88
2022/01/03 12:19:35;;;;;;;11.18;3.17;;;;;;;9.75;100.00;100131.72;4892444;29;20501;-87
2022/01/03 12:22:12;;;;;;;18.13;3.38;;;;;;;9.95;100.00;100151.88;4892079;29;20049;-88